Bautista Pino — EASK — position and weather

sailwx.info

Track history (hours):
 
Tides and Currents Weather Stations Pressure Air Temp Water Temp Dewpoint Dewpoint Depression Visibility Wind Speed Wind Dir Waves Ship Positions

Bautista Pino

Last reported at 2017-Dec-08 20:33 UTC. Time now 2017-Dec-16 19:01 UTC.
Position N 43°41' W 007°36'.

Length 29 m; draft 3.5 m.

Type: Fishing. MMSI: 224181290.

Date/timePositionNaut miles runAvg speedWind from/ knotsBaromVisibWave heightAir tempDewpointWater temp
2017-Dec-08 20:33N 43°41' W 007°36'0 0.0
2017-Dec-08 20:30N 43°41' W 007°36'0 0.1
2017-Dec-08 20:00N 43°41' W 007°36'0 0.3
2017-Dec-08 19:30N 43°41' W 007°36'0 0.0
2017-Dec-08 19:00N 43°41' W 007°36'1 1.1
2017-Dec-08 18:30N 43°41' W 007°36'3 5.4
2017-Dec-08 18:00N 43°44' W 007°36'4 8.8
2017-Dec-08 17:30N 43°48' W 007°39'4 8.7
2017-Dec-08 17:01N 43°51' W 007°42'5 8.6
2017-Dec-08 16:25N 43°56' W 007°46'  
2017-Dec-04 00:52N 43°47' W 007°21'1 2.2
2017-Dec-04 00:12N 43°46' W 007°23'1 2.9
2017-Dec-03 23:50N 43°46' W 007°24'3 8.8
2017-Dec-03 23:30N 43°46' W 007°28'4 8.5
2017-Dec-03 23:00N 43°45' W 007°34'4 8.3
2017-Dec-03 22:30N 43°41' W 007°36'0 0.2
2017-Dec-03 22:01N 43°41' W 007°36'0 0.1
2017-Dec-03 21:30N 43°41' W 007°36'0 0.0
2017-Dec-03 21:00N 43°41' W 007°36'0 0.0
2017-Dec-01 19:12N 43°41' W 007°36'0 0.2
2017-Dec-01 19:00N 43°41' W 007°36'0 0.8
2017-Dec-01 18:31N 43°41' W 007°36'4 8.8
2017-Dec-01 18:01N 43°45' W 007°36'4 8.9
2017-Dec-01 17:30N 43°49' W 007°39'4 8.6
2017-Dec-01 17:00N 43°53' W 007°41'4 8.8
2017-Dec-01 16:30N 43°58' W 007°43'9 1.3
2017-Dec-01 09:54N 44°03' W 007°33'1 2.0
2017-Dec-01 09:29N 44°03' W 007°32'14 2.6
2017-Dec-01 04:10N 43°50' W 007°24'0 1.1
2017-Dec-01 03:59N 43°51' W 007°24'0 0.5
2017-Dec-01 03:30N 43°51' W 007°24'1 1.0
2017-Dec-01 03:00N 43°51' W 007°24'1 2.0
2017-Dec-01 02:30N 43°51' W 007°23'1 1.9
2017-Dec-01 01:58N 43°50' W 007°22'1 1.9
2017-Dec-01 01:30N 43°49' W 007°21'1 2.0
2017-Dec-01 00:56N 43°48' W 007°21'1 2.0
2017-Dec-01 00:30N 43°48' W 007°20'1 0.0
2017-Nov-30 03:26N 43°47' W 007°20'1 1.8
2017-Nov-30 03:00N 43°47' W 007°21'1 1.5
2017-Nov-30 02:27N 43°47' W 007°22'4 7.9
2017-Nov-30 02:00N 43°46' W 007°27'4 8.7
2017-Nov-30 01:30N 43°45' W 007°33'4 8.3
2017-Nov-30 01:00N 43°41' W 007°36'1 1.2
2017-Nov-30 00:30N 43°41' W 007°36'0 0.0
2017-Nov-30 00:00N 43°41' W 007°36'0 0.0
2017-Nov-29 23:30N 43°41' W 007°36'0 0.0
2017-Nov-29 23:00N 43°41' W 007°36'0 0.0
2017-Nov-29 22:30N 43°41' W 007°36'0 0.0
2017-Nov-29 22:00N 43°41' W 007°36'2 3.2
2017-Nov-29 21:30N 43°42' W 007°36'4 8.9
2017-Nov-29 21:00N 43°45' W 007°31'5 9.1
2017-Nov-29 20:30N 43°47' W 007°25'5 9.2
2017-Nov-29 19:58N 43°49' W 007°19'2 0.1
2017-Nov-28 20:51N 43°47' W 007°19'  
Track history (hours):
 
Tides and Currents Weather Stations Pressure Air Temp Water Temp Dewpoint Dewpoint Depression Visibility Wind Speed Wind Dir Waves Ship Positions

Bautista Pino

Last reported at 2017-Dec-08 20:33 UTC. Time now 2017-Dec-16 19:01 UTC.
Position N 43°41' W 007°36'.

Length 29 m; draft 3.5 m.

Type: Fishing. MMSI: 224181290.

Date/timePositionNaut miles runAvg speedWind from/ knotsBaromVisibWave heightAir tempDewpointWater temp
2017-Dec-08 20:33N 43°41' W 007°36'0 0.0
2017-Dec-08 20:30N 43°41' W 007°36'0 0.1
2017-Dec-08 20:00N 43°41' W 007°36'0 0.3
2017-Dec-08 19:30N 43°41' W 007°36'0 0.0
2017-Dec-08 19:00N 43°41' W 007°36'1 1.1
2017-Dec-08 18:30N 43°41' W 007°36'3 5.4
2017-Dec-08 18:00N 43°44' W 007°36'4 8.8
2017-Dec-08 17:30N 43°48' W 007°39'4 8.7
2017-Dec-08 17:01N 43°51' W 007°42'5 8.6
2017-Dec-08 16:25N 43°56' W 007°46'  
2017-Dec-04 00:52N 43°47' W 007°21'1 2.2
2017-Dec-04 00:12N 43°46' W 007°23'1 2.9
2017-Dec-03 23:50N 43°46' W 007°24'3 8.8
2017-Dec-03 23:30N 43°46' W 007°28'4 8.5
2017-Dec-03 23:00N 43°45' W 007°34'4 8.3
2017-Dec-03 22:30N 43°41' W 007°36'0 0.2
2017-Dec-03 22:01N 43°41' W 007°36'0 0.1
2017-Dec-03 21:30N 43°41' W 007°36'0 0.0
2017-Dec-03 21:00N 43°41' W 007°36'0 0.0
2017-Dec-01 19:12N 43°41' W 007°36'0 0.2
2017-Dec-01 19:00N 43°41' W 007°36'0 0.8
2017-Dec-01 18:31N 43°41' W 007°36'4 8.8
2017-Dec-01 18:01N 43°45' W 007°36'4 8.9
2017-Dec-01 17:30N 43°49' W 007°39'4 8.6
2017-Dec-01 17:00N 43°53' W 007°41'4 8.8
2017-Dec-01 16:30N 43°58' W 007°43'9 1.3
2017-Dec-01 09:54N 44°03' W 007°33'1 2.0
2017-Dec-01 09:29N 44°03' W 007°32'14 2.6
2017-Dec-01 04:10N 43°50' W 007°24'0 1.1
2017-Dec-01 03:59N 43°51' W 007°24'0 0.5
2017-Dec-01 03:30N 43°51' W 007°24'1 1.0
2017-Dec-01 03:00N 43°51' W 007°24'1 2.0
2017-Dec-01 02:30N 43°51' W 007°23'1 1.9
2017-Dec-01 01:58N 43°50' W 007°22'1 1.9
2017-Dec-01 01:30N 43°49' W 007°21'1 2.0
2017-Dec-01 00:56N 43°48' W 007°21'1 2.0
2017-Dec-01 00:30N 43°48' W 007°20'1 0.0
2017-Nov-30 03:26N 43°47' W 007°20'1 1.8
2017-Nov-30 03:00N 43°47' W 007°21'1 1.5
2017-Nov-30 02:27N 43°47' W 007°22'4 7.9
2017-Nov-30 02:00N 43°46' W 007°27'4 8.7
2017-Nov-30 01:30N 43°45' W 007°33'4 8.3
2017-Nov-30 01:00N 43°41' W 007°36'1 1.2
2017-Nov-30 00:30N 43°41' W 007°36'0 0.0
2017-Nov-30 00:00N 43°41' W 007°36'0 0.0
2017-Nov-29 23:30N 43°41' W 007°36'0 0.0
2017-Nov-29 23:00N 43°41' W 007°36'0 0.0
2017-Nov-29 22:30N 43°41' W 007°36'0 0.0
2017-Nov-29 22:00N 43°41' W 007°36'2 3.2
2017-Nov-29 21:30N 43°42' W 007°36'4 8.9
2017-Nov-29 21:00N 43°45' W 007°31'5 9.1
2017-Nov-29 20:30N 43°47' W 007°25'5 9.2
2017-Nov-29 19:58N 43°49' W 007°19'2 0.1
2017-Nov-28 20:51N 43°47' W 007°19'  

Dump ship's entire track history